CBH2 weather

Helmet Airport
Helmet, British Columbia, Canada

Public forecast

Using degrees Celsius for public forecast. Weather courtesy of forecast.io.

Closest aviation weather report (METAR) to Helmet Airport

Closest report is Fort Nelson Airport, 65.8 nm (121.8 km) WSW. Retrieved 2020/04/09 20:00 UTC (18 minutes ago):

CYYE 092000Z 30015G25KT 250V330 30SM SCT098 07/M10 A2987 RMK AC4 SLP134

Closest aviation forecast (TAF) to Helmet Airport

Closest forecast is Fort Nelson Airport, 65.8 nm (121.8 km) WSW. Retrieved 2020/04/09 19:45 UTC (33 minutes ago):

TAF TAF CYYE 091843Z 0919/1007 29015G25KT P6SM SCT130 TEMPO 0919/0922 BKN130 FM092200 30015G25KT P6SM SCT050 SCT100 TEMPO 0923/1007 P6SM VCSH BKN050 RMK NXT FCST BY 100100Z